sensor_id;sensor_type;location;lat;lon;timestamp;temperature;humidity
55091;DHT22;40985;53.180;5.800;2024-02-14T00:01:06;6.70;99.90
55091;DHT22;40985;53.180;5.800;2024-02-14T00:03:34;6.80;99.90
55091;DHT22;40985;53.180;5.800;2024-02-14T00:06:00;6.70;99.90
55091;DHT22;40985;53.180;5.800;2024-02-14T00:08:26;6.40;99.90
55091;DHT22;40985;53.180;5.800;2024-02-14T00:10:51;6.90;99.90
55091;DHT22;40985;53.180;5.800;2024-02-14T00:13:17;5.90;99.90
55091;DHT22;40985;53.180;5.800;2024-02-14T00:15:46;6.30;99.90
55091;DHT22;40985;53.180;5.800;2024-02-14T00:18:12;6.10;99.90
55091;DHT22;40985;53.180;5.800;2024-02-14T00:20:38;6.10;99.90
55091;DHT22;40985;53.180;5.800;2024-02-14T00:23:06;6.70;99.90
55091;DHT22;40985;53.180;5.800;2024-02-14T00:25:32;6.90;99.90
55091;DHT22;40985;53.180;5.800;2024-02-14T00:27:58;6.00;99.90
55091;DHT22;40985;53.180;5.800;2024-02-14T00:30:26;6.90;99.90
55091;DHT22;40985;53.180;5.800;2024-02-14T00:32:52;6.00;99.90
55091;DHT22;40985;53.180;5.800;2024-02-14T00:35:18;6.30;99.90
55091;DHT22;40985;53.180;5.800;2024-02-14T00:37:43;6.00;99.90
55091;DHT22;40985;53.180;5.800;2024-02-14T00:40:09;6.70;99.90
55091;DHT22;40985;53.180;5.800;2024-02-14T00:42:36;6.10;99.90
55091;DHT22;40985;53.180;5.800;2024-02-14T00:45:02;6.20;99.90
55091;DHT22;40985;53.180;5.800;2024-02-14T00:47:28;6.90;99.90
55091;DHT22;40985;53.180;5.800;2024-02-14T00:49:54;7.10;99.90
55091;DHT22;40985;53.180;5.800;2024-02-14T00:52:20;7.00;99.90
55091;DHT22;40985;53.180;5.800;2024-02-14T00:54:47;6.40;99.90
55091;DHT22;40985;53.180;5.800;2024-02-14T00:57:12;6.40;99.90
55091;DHT22;40985;53.180;5.800;2024-02-14T00:59:38;6.50;99.90
55091;DHT22;40985;53.180;5.800;2024-02-14T01:02:04;7.10;99.90
55091;DHT22;40985;53.180;5.800;2024-02-14T01:04:30;7.10;99.90
55091;DHT22;40985;53.180;5.800;2024-02-14T01:06:55;6.50;99.90
55091;DHT22;40985;53.180;5.800;2024-02-14T01:09:21;6.30;99.90
55091;DHT22;40985;53.180;5.800;2024-02-14T01:11:47;7.20;99.90
55091;DHT22;40985;53.180;5.800;2024-02-14T01:14:14;6.70;99.90
55091;DHT22;40985;53.180;5.800;2024-02-14T01:16:44;7.10;99.90
55091;DHT22;40985;53.180;5.800;2024-02-14T01:19:10;7.40;99.90
55091;DHT22;40985;53.180;5.800;2024-02-14T01:21:36;6.60;99.90
55091;DHT22;40985;53.180;5.800;2024-02-14T01:24:02;7.10;99.90
55091;DHT22;40985;53.180;5.800;2024-02-14T01:26:28;7.40;99.90
55091;DHT22;40985;53.180;5.800;2024-02-14T01:28:53;6.90;99.90
55091;DHT22;40985;53.180;5.800;2024-02-14T01:31:19;7.60;99.90
55091;DHT22;40985;53.180;5.800;2024-02-14T01:33:46;6.90;99.90
55091;DHT22;40985;53.180;5.800;2024-02-14T01:36:11;7.70;99.90
55091;DHT22;40985;53.180;5.800;2024-02-14T01:38:37;7.30;99.90
55091;DHT22;40985;53.180;5.800;2024-02-14T01:41:03;6.90;99.90
55091;DHT22;40985;53.180;5.800;2024-02-14T01:43:29;6.80;99.90
55091;DHT22;40985;53.180;5.800;2024-02-14T01:46:06;7.90;99.90
55091;DHT22;40985;53.180;5.800;2024-02-14T01:48:34;7.20;99.90
55091;DHT22;40985;53.180;5.800;2024-02-14T01:51:00;7.40;99.90
55091;DHT22;40985;53.180;5.800;2024-02-14T01:53:27;8.00;99.90
55091;DHT22;40985;53.180;5.800;2024-02-14T01:55:56;8.00;99.90
55091;DHT22;40985;53.180;5.800;2024-02-14T01:58:22;7.10;99.90
55091;DHT22;40985;53.180;5.800;2024-02-14T02:00:49;7.00;99.90
55091;DHT22;40985;53.180;5.800;2024-02-14T02:03:14;8.00;99.90
55091;DHT22;40985;53.180;5.800;2024-02-14T02:05:41;7.30;99.90
55091;DHT22;40985;53.180;5.800;2024-02-14T02:08:08;8.10;99.90
55091;DHT22;40985;53.180;5.800;2024-02-14T02:10:35;7.40;99.90
55091;DHT22;40985;53.180;5.800;2024-02-14T02:13:01;7.50;99.90
55091;DHT22;40985;53.180;5.800;2024-02-14T02:15:27;7.00;99.90
55091;DHT22;40985;53.180;5.800;2024-02-14T02:17:54;7.40;99.90
55091;DHT22;40985;53.180;5.800;2024-02-14T02:20:20;8.00;99.90
55091;DHT22;40985;53.180;5.800;2024-02-14T02:22:47;7.10;99.90
55091;DHT22;40985;53.180;5.800;2024-02-14T02:25:13;8.10;99.90
55091;DHT22;40985;53.180;5.800;2024-02-14T02:27:39;8.20;99.90
55091;DHT22;40985;53.180;5.800;2024-02-14T02:30:06;7.50;99.90
55091;DHT22;40985;53.180;5.800;2024-02-14T02:32:33;7.40;99.90
55091;DHT22;40985;53.180;5.800;2024-02-14T02:34:59;7.30;99.90
55091;DHT22;40985;53.180;5.800;2024-02-14T02:37:28;8.40;99.90
55091;DHT22;40985;53.180;5.800;2024-02-14T02:39:57;8.40;99.90
55091;DHT22;40985;53.180;5.800;2024-02-14T02:42:22;8.10;99.90
55091;DHT22;40985;53.180;5.800;2024-02-14T02:44:50;7.90;99.90
55091;DHT22;40985;53.180;5.800;2024-02-14T02:47:16;8.20;99.90
55091;DHT22;40985;53.180;5.800;2024-02-14T02:49:45;8.40;99.90
55091;DHT22;40985;53.180;5.800;2024-02-14T02:52:12;7.80;99.90
55091;DHT22;40985;53.180;5.800;2024-02-14T02:54:38;8.60;99.90
55091;DHT22;40985;53.180;5.800;2024-02-14T02:57:12;8.00;99.90
55091;DHT22;40985;53.180;5.800;2024-02-14T02:59:38;8.50;99.90
55091;DHT22;40985;53.180;5.800;2024-02-14T03:02:09;8.30;99.90
55091;DHT22;40985;53.180;5.800;2024-02-14T03:04:37;8.60;99.90
55091;DHT22;40985;53.180;5.800;2024-02-14T03:07:03;7.70;99.90
55091;DHT22;40985;53.180;5.800;2024-02-14T03:09:32;7.60;99.90
55091;DHT22;40985;53.180;5.800;2024-02-14T03:11:58;8.70;99.90
55091;DHT22;40985;53.180;5.800;2024-02-14T03:14:24;8.50;99.90
55091;DHT22;40985;53.180;5.800;2024-02-14T03:16:50;7.70;99.90
55091;DHT22;40985;53.180;5.800;2024-02-14T03:19:16;7.90;99.90
55091;DHT22;40985;53.180;5.800;2024-02-14T03:21:42;8.50;99.90
55091;DHT22;40985;53.180;5.800;2024-02-14T03:24:08;7.90;99.90
55091;DHT22;40985;53.180;5.800;2024-02-14T03:26:36;8.90;99.90
55091;DHT22;40985;53.180;5.800;2024-02-14T03:29:03;8.30;99.90
55091;DHT22;40985;53.180;5.800;2024-02-14T03:31:32;7.90;99.90
55091;DHT22;40985;53.180;5.800;2024-02-14T03:33:58;8.00;99.90
55091;DHT22;40985;53.180;5.800;2024-02-14T03:36:23;9.10;99.90
55091;DHT22;40985;53.180;5.800;2024-02-14T03:38:52;9.20;99.90
55091;DHT22;40985;53.180;5.800;2024-02-14T03:41:18;8.30;99.90
55091;DHT22;40985;53.180;5.800;2024-02-14T03:43:43;8.10;99.90
55091;DHT22;40985;53.180;5.800;2024-02-14T03:46:09;9.20;99.90
55091;DHT22;40985;53.180;5.800;2024-02-14T03:48:35;9.00;99.90
55091;DHT22;40985;53.180;5.800;2024-02-14T03:51:01;8.30;99.90
55091;DHT22;40985;53.180;5.800;2024-02-14T03:53:26;9.30;99.90
55091;DHT22;40985;53.180;5.800;2024-02-14T03:55:52;9.20;99.90
55091;DHT22;40985;53.180;5.800;2024-02-14T03:58:19;8.50;99.90
55091;DHT22;40985;53.180;5.800;2024-02-14T04:00:50;8.70;99.90
55091;DHT22;40985;53.180;5.800;2024-02-14T04:03:16;9.40;99.90
55091;DHT22;40985;53.180;5.800;2024-02-14T04:05:42;9.30;99.90
55091;DHT22;40985;53.180;5.800;2024-02-14T04:08:07;9.50;99.90
55091;DHT22;40985;53.180;5.800;2024-02-14T04:10:38;8.90;99.90
55091;DHT22;40985;53.180;5.800;2024-02-14T04:13:04;8.90;99.90
55091;DHT22;40985;53.180;5.800;2024-02-14T04:15:31;8.80;99.90
55091;DHT22;40985;53.180;5.800;2024-02-14T04:17:56;8.50;99.90
55091;DHT22;40985;53.180;5.800;2024-02-14T04:20:22;9.30;99.90
55091;DHT22;40985;53.180;5.800;2024-02-14T04:22:48;8.70;99.90
55091;DHT22;40985;53.180;5.800;2024-02-14T04:25:13;8.70;99.90
55091;DHT22;40985;53.180;5.800;2024-02-14T04:27:39;9.60;99.90
55091;DHT22;40985;53.180;5.800;2024-02-14T04:30:05;9.40;99.90
55091;DHT22;40985;53.180;5.800;2024-02-14T04:32:31;8.50;99.90
55091;DHT22;40985;53.180;5.800;2024-02-14T04:34:58;8.60;99.90
55091;DHT22;40985;53.180;5.800;2024-02-14T04:37:24;8.70;99.90
55091;DHT22;40985;53.180;5.800;2024-02-14T04:39:50;8.70;99.90
55091;DHT22;40985;53.180;5.800;2024-02-14T04:42:15;9.60;99.90
55091;DHT22;40985;53.180;5.800;2024-02-14T04:44:41;8.50;99.90
55091;DHT22;40985;53.180;5.800;2024-02-14T04:47:07;9.10;99.90
55091;DHT22;40985;53.180;5.800;2024-02-14T04:49:35;8.60;99.90
55091;DHT22;40985;53.180;5.800;2024-02-14T04:52:01;8.80;99.90
55091;DHT22;40985;53.180;5.800;2024-02-14T04:54:26;8.60;99.90
55091;DHT22;40985;53.180;5.800;2024-02-14T04:56:54;9.80;99.90
55091;DHT22;40985;53.180;5.800;2024-02-14T04:59:19;9.40;99.90
55091;DHT22;40985;53.180;5.800;2024-02-14T05:01:45;8.70;99.90
55091;DHT22;40985;53.180;5.800;2024-02-14T05:04:11;8.80;99.90
55091;DHT22;40985;53.180;5.800;2024-02-14T05:06:38;9.50;99.90
55091;DHT22;40985;53.180;5.800;2024-02-14T05:09:05;8.80;99.90
55091;DHT22;40985;53.180;5.800;2024-02-14T05:11:30;9.70;99.90
55091;DHT22;40985;53.180;5.800;2024-02-14T05:13:56;9.50;99.90
55091;DHT22;40985;53.180;5.800;2024-02-14T05:16:22;8.60;99.90
55091;DHT22;40985;53.180;5.800;2024-02-14T05:18:48;8.60;99.90
55091;DHT22;40985;53.180;5.800;2024-02-14T05:21:14;8.70;99.90
55091;DHT22;40985;53.180;5.800;2024-02-14T05:23:40;9.80;99.90
55091;DHT22;40985;53.180;5.800;2024-02-14T05:26:06;8.70;99.90
55091;DHT22;40985;53.180;5.800;2024-02-14T05:28:32;8.90;99.90
55091;DHT22;40985;53.180;5.800;2024-02-14T05:30:59;9.80;99.90
55091;DHT22;40985;53.180;5.800;2024-02-14T05:33:25;9.20;99.90
55091;DHT22;40985;53.180;5.800;2024-02-14T05:35:52;8.70;99.90
55091;DHT22;40985;53.180;5.800;2024-02-14T05:38:18;8.80;99.90
55091;DHT22;40985;53.180;5.800;2024-02-14T05:40:47;8.70;99.90
55091;DHT22;40985;53.180;5.800;2024-02-14T05:43:14;9.30;99.90
55091;DHT22;40985;53.180;5.800;2024-02-14T05:45:39;8.90;99.90
55091;DHT22;40985;53.180;5.800;2024-02-14T05:48:05;9.60;99.90
55091;DHT22;40985;53.180;5.800;2024-02-14T05:50:31;8.90;99.90
55091;DHT22;40985;53.180;5.800;2024-02-14T05:52:58;8.70;99.90
55091;DHT22;40985;53.180;5.800;2024-02-14T05:55:24;10.00;99.90
55091;DHT22;40985;53.180;5.800;2024-02-14T05:57:52;9.10;99.90
55091;DHT22;40985;53.180;5.800;2024-02-14T06:00:21;9.30;99.90
55091;DHT22;40985;53.180;5.800;2024-02-14T06:02:50;9.40;99.90
55091;DHT22;40985;53.180;5.800;2024-02-14T06:05:16;8.80;99.90
55091;DHT22;40985;53.180;5.800;2024-02-14T06:07:42;9.20;99.90
55091;DHT22;40985;53.180;5.800;2024-02-14T06:10:10;9.80;99.90
55091;DHT22;40985;53.180;5.800;2024-02-14T06:12:36;9.50;99.90
55091;DHT22;40985;53.180;5.800;2024-02-14T06:15:02;8.70;99.90
55091;DHT22;40985;53.180;5.800;2024-02-14T06:17:28;9.80;99.90
55091;DHT22;40985;53.180;5.800;2024-02-14T06:19:54;10.00;99.90
55091;DHT22;40985;53.180;5.800;2024-02-14T06:22:20;8.70;99.90
55091;DHT22;40985;53.180;5.800;2024-02-14T06:24:47;8.90;99.90
55091;DHT22;40985;53.180;5.800;2024-02-14T06:27:16;9.90;99.90
55091;DHT22;40985;53.180;5.800;2024-02-14T06:29:44;9.20;99.90
55091;DHT22;40985;53.180;5.800;2024-02-14T06:32:13;10.00;99.90
55091;DHT22;40985;53.180;5.800;2024-02-14T06:34:39;8.80;99.90
55091;DHT22;40985;53.180;5.800;2024-02-14T06:37:05;9.00;99.90
55091;DHT22;40985;53.180;5.800;2024-02-14T06:39:31;8.80;99.90
55091;DHT22;40985;53.180;5.800;2024-02-14T06:41:57;9.40;99.90
55091;DHT22;40985;53.180;5.800;2024-02-14T06:44:25;8.80;99.90
55091;DHT22;40985;53.180;5.800;2024-02-14T06:46:51;10.00;99.90
55091;DHT22;40985;53.180;5.800;2024-02-14T06:49:17;9.20;99.90
55091;DHT22;40985;53.180;5.800;2024-02-14T06:51:43;10.00;99.90
55091;DHT22;40985;53.180;5.800;2024-02-14T06:54:09;9.20;99.90
55091;DHT22;40985;53.180;5.800;2024-02-14T06:56:35;9.80;99.90
55091;DHT22;40985;53.180;5.800;2024-02-14T06:59:01;9.60;99.90
55091;DHT22;40985;53.180;5.800;2024-02-14T07:01:31;8.70;99.90
55091;DHT22;40985;53.180;5.800;2024-02-14T07:03:58;8.60;99.90
55091;DHT22;40985;53.180;5.800;2024-02-14T07:06:24;9.90;99.90
55091;DHT22;40985;53.180;5.800;2024-02-14T07:08:49;9.90;99.90
55091;DHT22;40985;53.180;5.800;2024-02-14T07:11:16;8.90;99.90
55091;DHT22;40985;53.180;5.800;2024-02-14T07:13:42;9.50;99.90
55091;DHT22;40985;53.180;5.800;2024-02-14T07:16:08;9.60;99.90
55091;DHT22;40985;53.180;5.800;2024-02-14T07:18:34;8.90;99.90
55091;DHT22;40985;53.180;5.800;2024-02-14T07:21:00;9.70;99.90
55091;DHT22;40985;53.180;5.800;2024-02-14T07:23:26;9.50;99.90
55091;DHT22;40985;53.180;5.800;2024-02-14T07:25:53;8.70;99.90
55091;DHT22;40985;53.180;5.800;2024-02-14T07:28:18;8.80;99.90
55091;DHT22;40985;53.180;5.800;2024-02-14T07:30:44;10.10;99.90
55091;DHT22;40985;53.180;5.800;2024-02-14T07:33:10;8.80;99.90
55091;DHT22;40985;53.180;5.800;2024-02-14T07:35:39;8.90;99.90
55091;DHT22;40985;53.180;5.800;2024-02-14T07:38:05;10.10;99.90
55091;DHT22;40985;53.180;5.800;2024-02-14T07:40:31;9.90;99.90
55091;DHT22;40985;53.180;5.800;2024-02-14T07:42:57;9.20;99.90
55091;DHT22;40985;53.180;5.800;2024-02-14T07:45:23;10.00;99.90
55091;DHT22;40985;53.180;5.800;2024-02-14T07:47:51;10.20;99.90
55091;DHT22;40985;53.180;5.800;2024-02-14T07:50:17;9.10;99.90
55091;DHT22;40985;53.180;5.800;2024-02-14T07:52:44;9.00;99.90
55091;DHT22;40985;53.180;5.800;2024-02-14T07:55:11;9.30;99.90
55091;DHT22;40985;53.180;5.800;2024-02-14T07:57:41;9.00;99.90
55091;DHT22;40985;53.180;5.800;2024-02-14T08:00:07;9.00;99.90
55091;DHT22;40985;53.180;5.800;2024-02-14T08:02:34;9.20;99.90
55091;DHT22;40985;53.180;5.800;2024-02-14T08:05:00;10.20;99.90
55091;DHT22;40985;53.180;5.800;2024-02-14T08:07:26;9.00;99.90
55091;DHT22;40985;53.180;5.800;2024-02-14T08:09:51;9.30;99.90
55091;DHT22;40985;53.180;5.800;2024-02-14T08:12:17;9.20;99.90
55091;DHT22;40985;53.180;5.800;2024-02-14T08:14:43;9.20;99.90
55091;DHT22;40985;53.180;5.800;2024-02-14T08:17:08;9.20;99.90
55091;DHT22;40985;53.180;5.800;2024-02-14T08:19:34;9.00;99.90
55091;DHT22;40985;53.180;5.800;2024-02-14T08:22:00;9.70;99.90
55091;DHT22;40985;53.180;5.800;2024-02-14T08:24:26;9.80;99.90
55091;DHT22;40985;53.180;5.800;2024-02-14T08:26:53;9.80;99.90
55091;DHT22;40985;53.180;5.800;2024-02-14T08:29:19;9.00;99.90
55091;DHT22;40985;53.180;5.800;2024-02-14T08:31:44;10.30;99.90
55091;DHT22;40985;53.180;5.800;2024-02-14T08:34:10;9.20;99.90
55091;DHT22;40985;53.180;5.800;2024-02-14T08:36:36;10.20;99.90
55091;DHT22;40985;53.180;5.800;2024-02-14T08:39:09;9.40;99.90
55091;DHT22;40985;53.180;5.800;2024-02-14T08:41:39;9.90;99.90
55091;DHT22;40985;53.180;5.800;2024-02-14T08:44:06;9.10;99.90
55091;DHT22;40985;53.180;5.800;2024-02-14T08:46:32;10.10;99.90
55091;DHT22;40985;53.180;5.800;2024-02-14T08:49:00;9.40;99.90
55091;DHT22;40985;53.180;5.800;2024-02-14T08:51:30;9.50;99.90
55091;DHT22;40985;53.180;5.800;2024-02-14T08:53:56;9.30;99.90
55091;DHT22;40985;53.180;5.800;2024-02-14T08:56:25;10.10;99.90
55091;DHT22;40985;53.180;5.800;2024-02-14T08:58:50;9.50;99.90
55091;DHT22;40985;53.180;5.800;2024-02-14T09:01:16;9.40;99.90
55091;DHT22;40985;53.180;5.800;2024-02-14T09:03:42;9.30;99.90
55091;DHT22;40985;53.180;5.800;2024-02-14T09:06:14;9.40;99.90
55091;DHT22;40985;53.180;5.800;2024-02-14T09:08:40;9.60;99.90
55091;DHT22;40985;53.180;5.800;2024-02-14T09:11:06;9.50;99.90
55091;DHT22;40985;53.180;5.800;2024-02-14T09:13:32;10.60;99.90
55091;DHT22;40985;53.180;5.800;2024-02-14T09:15:57;10.40;99.90
55091;DHT22;40985;53.180;5.800;2024-02-14T09:18:23;9.40;99.90
55091;DHT22;40985;53.180;5.800;2024-02-14T09:20:49;10.60;99.90
55091;DHT22;40985;53.180;5.800;2024-02-14T09:23:16;9.40;99.90
55091;DHT22;40985;53.180;5.800;2024-02-14T09:25:46;9.50;99.90
55091;DHT22;40985;53.180;5.800;2024-02-14T09:28:12;9.50;99.90
55091;DHT22;40985;53.180;5.800;2024-02-14T09:30:40;9.50;99.90
55091;DHT22;40985;53.180;5.800;2024-02-14T09:33:05;9.90;99.90
55091;DHT22;40985;53.180;5.800;2024-02-14T09:35:31;9.50;99.90
55091;DHT22;40985;53.180;5.800;2024-02-14T09:37:56;10.60;99.90
55091;DHT22;40985;53.180;5.800;2024-02-14T09:40:22;9.70;99.90
55091;DHT22;40985;53.180;5.800;2024-02-14T09:43:01;10.40;99.90
55091;DHT22;40985;53.180;5.800;2024-02-14T09:45:30;10.40;99.90
55091;DHT22;40985;53.180;5.800;2024-02-14T09:47:59;9.80;99.90
55091;DHT22;40985;53.180;5.800;2024-02-14T09:50:26;10.60;99.90
55091;DHT22;40985;53.180;5.800;2024-02-14T09:52:56;9.90;99.90
55091;DHT22;40985;53.180;5.800;2024-02-14T09:55:23;9.90;99.90
55091;DHT22;40985;53.180;5.800;2024-02-14T09:57:50;9.70;99.90
55091;DHT22;40985;53.180;5.800;2024-02-14T10:00:16;9.60;99.90
55091;DHT22;40985;53.180;5.800;2024-02-14T10:02:42;10.50;99.90
55091;DHT22;40985;53.180;5.800;2024-02-14T10:05:08;10.50;99.90
55091;DHT22;40985;53.180;5.800;2024-02-14T10:07:41;9.80;99.90
55091;DHT22;40985;53.180;5.800;2024-02-14T10:10:07;9.60;99.90
55091;DHT22;40985;53.180;5.800;2024-02-14T10:12:33;9.60;99.90
55091;DHT22;40985;53.180;5.800;2024-02-14T10:14:59;9.80;99.90
55091;DHT22;40985;53.180;5.800;2024-02-14T10:17:24;10.90;99.90
55091;DHT22;40985;53.180;5.800;2024-02-14T10:19:58;9.70;99.90
55091;DHT22;40985;53.180;5.800;2024-02-14T10:22:24;9.80;99.90
55091;DHT22;40985;53.180;5.800;2024-02-14T10:24:51;10.90;99.90
55091;DHT22;40985;53.180;5.800;2024-02-14T10:27:17;10.10;99.90
55091;DHT22;40985;53.180;5.800;2024-02-14T10:29:42;11.00;99.90
55091;DHT22;40985;53.180;5.800;2024-02-14T10:32:09;10.50;99.90
55091;DHT22;40985;53.180;5.800;2024-02-14T10:34:37;9.80;99.90
55091;DHT22;40985;53.180;5.800;2024-02-14T10:37:05;10.10;99.90
55091;DHT22;40985;53.180;5.800;2024-02-14T10:39:32;10.70;99.90
55091;DHT22;40985;53.180;5.800;2024-02-14T10:42:01;10.50;99.90
55091;DHT22;40985;53.180;5.800;2024-02-14T10:44:27;10.00;99.90
55091;DHT22;40985;53.180;5.800;2024-02-14T10:46:55;9.80;99.90
55091;DHT22;40985;53.180;5.800;2024-02-14T10:49:25;9.80;99.90
55091;DHT22;40985;53.180;5.800;2024-02-14T10:51:54;9.80;99.90
55091;DHT22;40985;53.180;5.800;2024-02-14T10:54:21;10.40;99.90
55091;DHT22;40985;53.180;5.800;2024-02-14T10:56:52;10.40;99.90
55091;DHT22;40985;53.180;5.800;2024-02-14T10:59:21;9.90;99.90
55091;DHT22;40985;53.180;5.800;2024-02-14T11:01:49;9.90;99.90
55091;DHT22;40985;53.180;5.800;2024-02-14T11:04:16;10.90;99.90
55091;DHT22;40985;53.180;5.800;2024-02-14T11:06:46;10.50;99.90
55091;DHT22;40985;53.180;5.800;2024-02-14T11:09:13;10.90;99.90
55091;DHT22;40985;53.180;5.800;2024-02-14T11:11:42;10.00;99.90
55091;DHT22;40985;53.180;5.800;2024-02-14T11:14:08;11.00;99.90
55091;DHT22;40985;53.180;5.800;2024-02-14T11:16:34;10.00;99.90
55091;DHT22;40985;53.180;5.800;2024-02-14T11:19:06;11.20;99.90
55091;DHT22;40985;53.180;5.800;2024-02-14T11:21:40;9.90;99.90
55091;DHT22;40985;53.180;5.800;2024-02-14T11:24:10;10.20;99.90
55091;DHT22;40985;53.180;5.800;2024-02-14T11:26:47;10.90;99.90
55091;DHT22;40985;53.180;5.800;2024-02-14T11:29:17;11.10;99.90
55091;DHT22;40985;53.180;5.800;2024-02-14T11:31:44;11.00;99.90
55091;DHT22;40985;53.180;5.800;2024-02-14T11:34:14;9.90;99.90
55091;DHT22;40985;53.180;5.800;2024-02-14T11:36:44;10.30;99.90
55091;DHT22;40985;53.180;5.800;2024-02-14T11:39:11;11.20;99.90
55091;DHT22;40985;53.180;5.800;2024-02-14T11:41:39;11.00;99.90
55091;DHT22;40985;53.180;5.800;2024-02-14T11:44:08;10.20;99.90
55091;DHT22;40985;53.180;5.800;2024-02-14T11:46:35;11.10;99.90
55091;DHT22;40985;53.180;5.800;2024-02-14T11:49:02;10.00;99.90
55091;DHT22;40985;53.180;5.800;2024-02-14T11:51:29;10.30;99.90
55091;DHT22;40985;53.180;5.800;2024-02-14T11:53:57;10.00;99.90
55091;DHT22;40985;53.180;5.800;2024-02-14T11:56:33;10.10;99.90
55091;DHT22;40985;53.180;5.800;2024-02-14T11:59:03;10.20;99.90
55091;DHT22;40985;53.180;5.800;2024-02-14T12:01:34;10.10;99.90
55091;DHT22;40985;53.180;5.800;2024-02-14T12:04:02;10.90;99.90
55091;DHT22;40985;53.180;5.800;2024-02-14T12:06:29;10.20;99.90
55091;DHT22;40985;53.180;5.800;2024-02-14T12:08:58;11.10;99.90
55091;DHT22;40985;53.180;5.800;2024-02-14T12:11:39;10.30;99.90
55091;DHT22;40985;53.180;5.800;2024-02-14T12:14:07;10.10;99.90
55091;DHT22;40985;53.180;5.800;2024-02-14T12:16:36;11.10;99.90
55091;DHT22;40985;53.180;5.800;2024-02-14T12:19:09;11.10;99.90
55091;DHT22;40985;53.180;5.800;2024-02-14T12:21:39;10.20;99.90
55091;DHT22;40985;53.180;5.800;2024-02-14T12:24:08;11.20;99.90
55091;DHT22;40985;53.180;5.800;2024-02-14T12:26:37;10.70;99.90
55091;DHT22;40985;53.180;5.800;2024-02-14T12:29:04;10.60;99.90
55091;DHT22;40985;53.180;5.800;2024-02-14T12:31:30;11.10;99.90
55091;DHT22;40985;53.180;5.800;2024-02-14T12:33:57;11.30;99.90
55091;DHT22;40985;53.180;5.800;2024-02-14T12:36:28;10.60;99.90
55091;DHT22;40985;53.180;5.800;2024-02-14T12:38:54;11.10;99.90
55091;DHT22;40985;53.180;5.800;2024-02-14T12:41:21;11.10;99.90
55091;DHT22;40985;53.180;5.800;2024-02-14T12:43:49;10.50;99.90
55091;DHT22;40985;53.180;5.800;2024-02-14T12:46:15;10.70;99.90
55091;DHT22;40985;53.180;5.800;2024-02-14T12:48:41;10.90;99.90
55091;DHT22;40985;53.180;5.800;2024-02-14T12:51:07;10.00;99.90
55091;DHT22;40985;53.180;5.800;2024-02-14T12:53:34;10.50;99.90
55091;DHT22;40985;53.180;5.800;2024-02-14T12:55:59;11.00;99.90
55091;DHT22;40985;53.180;5.800;2024-02-14T12:58:25;11.00;99.90
55091;DHT22;40985;53.180;5.800;2024-02-14T13:00:52;10.20;99.90
55091;DHT22;40985;53.180;5.800;2024-02-14T13:03:19;11.20;99.90
55091;DHT22;40985;53.180;5.800;2024-02-14T13:05:45;10.90;99.90
55091;DHT22;40985;53.180;5.800;2024-02-14T13:08:13;10.60;99.90
55091;DHT22;40985;53.180;5.800;2024-02-14T13:10:38;10.40;99.90
55091;DHT22;40985;53.180;5.800;2024-02-14T13:13:04;10.30;99.90
55091;DHT22;40985;53.180;5.800;2024-02-14T13:15:30;10.20;99.90
55091;DHT22;40985;53.180;5.800;2024-02-14T13:17:55;10.90;99.90
55091;DHT22;40985;53.180;5.800;2024-02-14T13:20:24;10.00;99.90
55091;DHT22;40985;53.180;5.800;2024-02-14T13:22:50;10.30;99.90
55091;DHT22;40985;53.180;5.800;2024-02-14T13:25:15;11.20;99.90
55091;DHT22;40985;53.180;5.800;2024-02-14T13:27:41;10.30;99.90
55091;DHT22;40985;53.180;5.800;2024-02-14T13:30:08;11.00;99.90
55091;DHT22;40985;53.180;5.800;2024-02-14T13:32:34;10.10;99.90
55091;DHT22;40985;53.180;5.800;2024-02-14T13:34:59;11.10;99.90
55091;DHT22;40985;53.180;5.800;2024-02-14T13:37:25;10.30;99.90
55091;DHT22;40985;53.180;5.800;2024-02-14T13:39:51;10.10;99.90
55091;DHT22;40985;53.180;5.800;2024-02-14T13:42:17;11.30;99.90
55091;DHT22;40985;53.180;5.800;2024-02-14T13:44:42;11.20;99.90
55091;DHT22;40985;53.180;5.800;2024-02-14T13:47:09;11.30;99.90
55091;DHT22;40985;53.180;5.800;2024-02-14T13:49:34;10.40;99.90
55091;DHT22;40985;53.180;5.800;2024-02-14T13:52:00;11.30;99.90
55091;DHT22;40985;53.180;5.800;2024-02-14T13:54:26;10.70;99.90
55091;DHT22;40985;53.180;5.800;2024-02-14T13:56:51;11.20;99.90
55091;DHT22;40985;53.180;5.800;2024-02-14T13:59:17;10.50;99.90
55091;DHT22;40985;53.180;5.800;2024-02-14T14:01:45;10.90;99.90
55091;DHT22;40985;53.180;5.800;2024-02-14T14:04:11;11.50;99.90
55091;DHT22;40985;53.180;5.800;2024-02-14T14:06:38;11.50;99.90
55091;DHT22;40985;53.180;5.800;2024-02-14T14:09:05;10.90;99.90
55091;DHT22;40985;53.180;5.800;2024-02-14T14:11:35;11.30;99.90
55091;DHT22;40985;53.180;5.800;2024-02-14T14:14:01;11.60;99.90
55091;DHT22;40985;53.180;5.800;2024-02-14T14:16:26;11.40;99.90
55091;DHT22;40985;53.180;5.800;2024-02-14T14:18:52;11.40;99.90
55091;DHT22;40985;53.180;5.800;2024-02-14T14:21:18;10.90;99.90
55091;DHT22;40985;53.180;5.800;2024-02-14T14:23:44;11.30;99.90
55091;DHT22;40985;53.180;5.800;2024-02-14T14:26:10;10.30;99.90
55091;DHT22;40985;53.180;5.800;2024-02-14T14:28:36;11.40;99.90
55091;DHT22;40985;53.180;5.800;2024-02-14T14:31:01;11.30;99.90
55091;DHT22;40985;53.180;5.800;2024-02-14T14:33:27;11.30;99.90
55091;DHT22;40985;53.180;5.800;2024-02-14T14:35:53;11.20;99.90
55091;DHT22;40985;53.180;5.800;2024-02-14T14:38:20;10.90;99.90
55091;DHT22;40985;53.180;5.800;2024-02-14T14:40:47;10.10;99.90
55091;DHT22;40985;53.180;5.800;2024-02-14T14:43:16;10.90;99.90
55091;DHT22;40985;53.180;5.800;2024-02-14T14:45:44;10.80;99.90
55091;DHT22;40985;53.180;5.800;2024-02-14T14:48:10;11.40;99.90
55091;DHT22;40985;53.180;5.800;2024-02-14T14:50:36;10.70;99.90
55091;DHT22;40985;53.180;5.800;2024-02-14T14:53:02;10.30;99.90
55091;DHT22;40985;53.180;5.800;2024-02-14T14:55:50;11.10;99.90
55091;DHT22;40985;53.180;5.800;2024-02-14T14:58:15;11.30;99.90
55091;DHT22;40985;53.180;5.800;2024-02-14T15:00:42;11.30;99.90
55091;DHT22;40985;53.180;5.800;2024-02-14T15:03:08;11.20;99.90
55091;DHT22;40985;53.180;5.800;2024-02-14T15:05:34;11.20;99.90
55091;DHT22;40985;53.180;5.800;2024-02-14T15:07:59;11.00;99.90
55091;DHT22;40985;53.180;5.800;2024-02-14T15:10:25;10.90;99.90
55091;DHT22;40985;53.180;5.800;2024-02-14T15:12:51;11.40;99.90
55091;DHT22;40985;53.180;5.800;2024-02-14T15:15:16;11.10;99.90
55091;DHT22;40985;53.180;5.800;2024-02-14T15:17:44;10.90;99.90
55091;DHT22;40985;53.180;5.800;2024-02-14T15:20:10;10.30;99.90
55091;DHT22;40985;53.180;5.800;2024-02-14T15:22:36;10.20;99.90
55091;DHT22;40985;53.180;5.800;2024-02-14T15:25:02;11.00;99.90
55091;DHT22;40985;53.180;5.800;2024-02-14T15:27:28;10.40;99.90
55091;DHT22;40985;53.180;5.800;2024-02-14T15:29:56;10.60;99.90
55091;DHT22;40985;53.180;5.800;2024-02-14T15:32:40;10.90;99.90
55091;DHT22;40985;53.180;5.800;2024-02-14T15:35:25;10.30;99.90
55091;DHT22;40985;53.180;5.800;2024-02-14T15:37:51;11.30;99.90